createdAt,value
2023-03-10T09:43:21.847Z,21.62
2023-03-10T09:43:55.335Z,21.63
2023-03-10T09:44:22.771Z,21.61
2023-03-10T09:44:52.701Z,21.60
2023-03-10T09:45:22.746Z,21.60
2023-03-10T09:45:53.083Z,21.64
2023-03-10T09:46:22.737Z,21.58
2023-03-10T09:46:52.730Z,21.48
2023-03-10T09:47:23.735Z,21.33
2023-03-10T09:47:52.750Z,21.37
2023-03-10T09:48:25.405Z,21.38
2023-03-10T09:48:52.708Z,21.31
2023-03-10T09:49:22.766Z,21.20
2023-03-10T09:49:52.709Z,21.06
2023-03-10T09:50:22.708Z,20.98
2023-03-10T09:50:52.709Z,20.96
2023-03-10T09:51:22.731Z,20.96
2023-03-10T09:51:52.694Z,20.97
2023-03-10T09:52:22.695Z,21.01
2023-03-10T09:58:30.098Z,20.80
2023-03-10T09:59:24.167Z,20.68
2023-03-10T09:59:29.016Z,20.60
2023-03-10T09:59:58.965Z,20.60
2023-03-10T10:00:28.980Z,20.63
2023-03-10T10:01:00.684Z,20.71
2023-03-10T10:01:28.987Z,20.80
2023-03-10T10:01:58.961Z,20.78
2023-03-10T10:02:28.955Z,20.73
2023-03-10T10:02:59.168Z,20.84
2023-03-10T10:03:29.601Z,20.96
2023-03-10T10:03:59.284Z,21.00
2023-03-10T10:04:28.959Z,21.05
2023-03-10T10:04:58.940Z,21.22
2023-03-10T10:05:28.898Z,21.50
2023-03-10T10:06:06.831Z,21.70
2023-03-10T10:06:29.123Z,21.94
2023-03-10T10:06:58.897Z,22.17
2023-03-10T10:07:30.021Z,22.34
2023-03-10T10:07:58.875Z,22.45
2023-03-10T10:08:29.273Z,22.51
2023-03-10T10:09:05.277Z,22.68
2023-03-10T10:09:28.886Z,22.83
2023-03-10T10:09:59.576Z,22.99
2023-03-10T10:10:28.838Z,23.03
2023-03-10T10:10:58.830Z,23.05
2023-03-10T10:17:53.026Z,23.04
2023-03-10T10:18:22.601Z,23.21
2023-03-10T10:20:46.574Z,23.92
2023-03-10T10:28:50.931Z,24.53
2023-03-10T10:30:40.877Z,24.18
2023-03-10T10:37:09.717Z,23.99
2023-03-10T10:38:08.705Z,24.77
2023-03-10T10:39:09.627Z,26.59
2023-03-10T10:42:10.714Z,24.42
2023-03-10T10:42:45.132Z,24.29
2023-03-10T10:43:07.763Z,24.22
